Terminal Aerodrome Forecast
Issued by NWS Wilmington, OH

Current Version | Previous Version | Graphics & Text | Print | Product List | Glossary On
Versions: 1 2 3 4 5 6 7 8 9 10 11 12 13 14 15 16 17 18 19 20 21 22
106
FTUS41 KILN 151016 AAA
TAFCMH
TAF AMD
KCMH 151016Z 1510/1606 15007KT 3SM -SN OVC035
      TEMPO 1510/1514 2SM -SN OVC025
     FM151400 14006KT P6SM SCT015 OVC035
     FM151700 18011G19KT 3SM -SN OVC025
     FM151900 18010G18KT 1SM -SN OVC018
     FM160000 24012KT 3SM -SN OVC015=

USA.gov is the U.S. government's official web portal to all federal, state and local government web resources and services.